This is the latest recevied weather packets stored in our database for station/object KI5GCD-13. If no packets are shown the sender has not sent any weather packets the latest 10 day(s).
| Time | Temp. | Humidity | Pressure | Rain* | Wind** | Luminosity | Snow |
|---|---|---|---|---|---|---|---|
| 1777437587 | 12.78° C | 97% | 1012.6 hPa | 0 mm | 0.45 m/s, 276° | - | - |
| 1777437288 | 12.78° C | 97% | 1012.4 hPa | 0 mm | 1.34 m/s, 4° | - | - |
| 1777436987 | 12.78° C | 97% | 1012.7 hPa | 0 mm | 0.89 m/s, 282° | - | - |
| 1777436687 | 12.78° C | 97% | 1012.4 hPa | 0 mm | 0.45 m/s, 35° | - | - |
| 1777436387 | 12.78° C | 97% | 1012.3 hPa | 0 mm | 1.34 m/s, 74° | - | - |
| 1777436087 | 12.78° C | 97% | 1012.7 hPa | 0 mm | 0.89 m/s, 28° | - | - |
| 1777435787 | 12.78° C | 97% | 1012.9 hPa | 0 mm | 0 m/s | - | - |
| 1777435487 | 12.78° C | 97% | 1012.9 hPa | 0 mm | 1.34 m/s, 11° | - | - |
| 1777435187 | 12.78° C | 97% | 1012.6 hPa | 0 mm | 0 m/s | - | - |
| 1777434887 | 12.78° C | 98% | 1012.7 hPa | 0 mm | 2.24 m/s, 354° | - | - |
| 1777434587 | 12.78° C | 98% | 1012.4 hPa | 0 mm | 0.45 m/s, 268° | - | - |
| 1777434287 | 12.78° C | 98% | 1012.2 hPa | 0 mm | 0.45 m/s, 290° | - | - |
| 1777433987 | 12.78° C | 98% | 1012.2 hPa | 0 mm | 0.45 m/s, 265° | - | - |
| 1777433688 | 12.78° C | 98% | 1012 hPa | 0 mm | 1.34 m/s, 43° | - | - |
| 1777433387 | 12.78° C | 98% | 1012.2 hPa | 0 mm | 0.89 m/s, 279° | - | - |
| 1777433087 | 12.78° C | 98% | 1012 hPa | 0 mm | 1.79 m/s, 132° | - | - |
| 1777432787 | 12.78° C | 98% | 1012.2 hPa | 0 mm | 0.45 m/s, 354° | - | - |
| 1777432487 | 12.78° C | 98% | 1012.1 hPa | 0 mm | 0 m/s | - | - |
| 1777432188 | 12.78° C | 98% | 1011.7 hPa | 0 mm | 1.34 m/s, 15° | - | - |
| 1777431888 | 12.78° C | 98% | 1011.7 hPa | 0 mm | 0.89 m/s, 308° | - | - |
| 1777431587 | 12.78° C | 98% | 1011.6 hPa | 0 mm | 3.13 m/s, 54° | - | - |
| 1777431287 | 13.33° C | 99% | 1011.5 hPa | 0 mm | 0.45 m/s, 264° | - | - |
| 1777430988 | 13.33° C | 99% | 1011.4 hPa | 0 mm | 0.89 m/s, 258° | - | - |
| 1777430687 | 13.33° C | 99% | 1011.5 hPa | 0 mm | 0.45 m/s, 294° | - | - |
| 1777430387 | 13.33° C | 99% | 1011.1 hPa | 0 mm | 0.89 m/s, 298° | - | - |
* Rain latest hour (hover to see other rain measurements)
** Current wind speed in m/s (hover to see current wind gust speed)